KDPA/DPA METAR and TAF weather

Enter ICAO airport designator
Station Type Date Time Source
KDPA METAR 2019/10/21 22:52 UTC NOAA

KDPA 212252Z 21014G23KT 10SM OVC060 16/06 A2948 RMK AO2 PK WND 22034/2155 SLP982 T01610056


Station Type Date Time Source
KDPA Decoded METAR 2019/10/21 22:52 UTC NOAA

CHICAGO/WEST CH DUPAGE, IL, United States (KDPA) 41-54N 88-15W 230M
Oct 21, 2019 - 06:52 PM EDT / 2019.10.21 2252 UTC
Wind: from the SSW (210 degrees) at 16 MPH (14 KT) gusting to 26 MPH (23 KT):0
Visibility: 10 mile(s):0
Sky conditions: overcast
Temperature: 61.0 F (16.1 C)
Dew Point: 42.1 F (5.6 C)
Relative Humidity: 49%
Pressure (altimeter): 29.48 in. Hg (998 hPa)
ob: KDPA 212252Z 21014G23KT 10SM OVC060 16/06 A2948 RMK AO2 PK WND 22034/2155 SLP982 T01610056
cycle: 23

Station Type Date Time Source
KDPA TAF 2019/10/21 18:59 UTC NOAA

TAF COR KDPA 211759Z 2118/2218 18019G30KT P6SM -SHRA VCTS BKN015 OVC025CB
TEMPO 2118/2120 3SM SHRA BR BKN010
FM212000 22020G31KT P6SM SCT040
FM220200 21018G28KT P6SM BKN035
FM220900 23021G35KT P6SM OVC020 PROB30 2213/2218 5SM -RA BR

Example: see airport list